Time;durP1;ratioP1;P1;durP2;ratioP2;P2;SDS_P1;SDS_P2;PMS_P1;PMS_P2;Temp;Humidity;BMP_temperature;BMP_pressure;BME280_temperature;BME280_humidity;BME280_pressure;Samples;Min_cycle;Max_cycle;Signal;HPM_P1;HPM_P2
2024/01/31 00:01:42;;;;;;;;;;;;;;;10.46;71.71;102999.34;7348072;19;19971;-67
2024/01/31 00:04:09;;;;;;;;;;;;;;;10.48;71.55;103007.97;7345512;19;19919;-66
2024/01/31 00:06:36;;;;;;;;;;;;;;;10.45;71.30;103016.94;7345384;19;20402;-66
2024/01/31 00:09:03;;;;;;;;;;;;;;;10.45;71.57;103023.97;7349486;19;20551;-67
2024/01/31 00:11:30;;;;;;;;;;;;;;;10.46;71.92;103021.25;7345072;19;19947;-66
2024/01/31 00:13:57;;;;;;;;;;;;;;;10.42;71.60;103025.00;7343018;19;19926;-67
2024/01/31 00:16:24;;;;;;;;;;;;;;;10.43;71.03;103024.06;7349583;19;19911;-66
2024/01/31 00:18:51;;;;;;;;;;;;;;;10.40;70.68;103021.63;7344782;19;20279;-65
2024/01/31 00:21:18;;;;;;;;;;;;;;;10.43;70.21;103036.38;7338194;19;19919;-67
2024/01/31 00:23:46;;;;;;;;;;;;;;;10.41;69.58;103041.75;7347261;19;20014;-67
2024/01/31 00:26:12;;;;;;;;;;;;;;;10.43;69.81;103039.00;7346724;19;19918;-66
2024/01/31 00:28:39;;;;;;;;;;;;;;;10.41;70.24;103033.00;7343730;19;20255;-66
2024/01/31 00:31:09;;;;;;;;;;;;;;;10.47;70.57;103043.13;7342764;19;21222;-66
2024/01/31 00:33:36;;;;;;;;;;;;;;;10.43;70.66;103034.59;7342166;19;20011;-67
2024/01/31 00:36:03;;;;;;;;;;;;;;;10.41;70.64;103038.28;7336951;19;20504;-65
2024/01/31 00:38:30;;;;;;;;;;;;;;;10.44;71.23;103028.38;7336744;19;20714;-67
2024/01/31 00:40:57;;;;;;;;;;;;;;;10.48;71.75;103023.75;7330825;19;20533;-67
2024/01/31 00:43:24;;;;;;;;;;;;;;;10.53;71.19;103021.69;7337808;19;20214;-66
2024/01/31 00:45:53;;;;;;;;;;;;;;;10.47;70.59;103022.06;7341376;19;19915;-66
2024/01/31 00:48:20;;;;;;;;;;;;;;;10.49;70.97;103020.19;7352093;19;19922;-67
2024/01/31 00:50:47;;;;;;;;;;;;;;;10.57;71.31;103021.38;7346863;19;19919;-66
2024/01/31 00:53:14;;;;;;;;;;;;;;;10.59;71.23;103018.66;7339384;19;19919;-66
2024/01/31 00:55:41;;;;;;;;;;;;;;;10.60;72.14;103012.47;7335134;19;19915;-66
2024/01/31 00:58:08;;;;;;;;;;;;;;;10.62;72.47;103002.66;7346398;19;19955;-67
2024/01/31 01:00:36;;;;;;;;;;;;;;;10.61;71.87;102999.22;7346371;19;19914;-66
2024/01/31 01:03:03;;;;;;;;;;;;;;;10.61;72.05;102983.41;7354794;19;21588;-66
2024/01/31 01:05:30;;;;;;;;;;;;;;;10.60;71.79;102970.34;7342135;19;19929;-69
2024/01/31 01:07:56;;;;;;;;;;;;;;;10.62;70.81;102968.44;7353877;19;20327;-66
2024/01/31 01:10:24;;;;;;;;;;;;;;;10.60;71.10;102965.09;7343792;19;19931;-65
2024/01/31 01:12:51;;;;;;;;;;;;;;;10.59;70.57;102963.38;7348679;19;19915;-67
2024/01/31 01:15:19;;;;;;;;;;;;;;;10.53;69.98;102961.16;7348747;19;19919;-66
2024/01/31 01:17:46;;;;;;;;;;;;;;;10.49;70.06;102946.50;7344229;19;19970;-66
2024/01/31 01:20:13;;;;;;;;;;;;;;;10.51;70.72;102953.38;7351534;19;19926;-65
2024/01/31 01:22:42;;;;;;;;;;;;;;;10.51;70.41;102945.47;7344406;19;21213;-66
2024/01/31 01:25:10;;;;;;;;;;;;;;;10.57;70.44;102944.19;7346537;19;20001;-67
2024/01/31 01:27:37;;;;;;;;;;;;;;;10.59;69.20;102930.00;7344528;19;19998;-65
2024/01/31 01:30:04;;;;;;;;;;;;;;;10.53;68.00;102932.19;7338636;19;21539;-68
2024/01/31 01:32:31;;;;;;;;;;;;;;;10.50;68.88;102928.00;7342675;19;19969;-66
2024/01/31 01:35:04;;;;;;;;;;;;;;;10.53;68.31;102929.56;7351948;19;21516;-67
2024/01/31 01:37:41;;;;;;;;;;;;;;;10.53;69.28;102922.50;7353684;19;19923;-66
2024/01/31 01:40:09;;;;;;;;;;;;;;;10.49;68.44;102928.09;7357062;19;19926;-67
2024/01/31 01:42:40;;;;;;;;;;;;;;;10.49;67.80;102920.19;7356236;19;20748;-67
2024/01/31 01:45:08;;;;;;;;;;;;;;;10.53;67.22;102924.28;7354925;19;19931;-67
2024/01/31 01:47:36;;;;;;;;;;;;;;;10.52;67.42;102910.28;7353276;19;20960;-66
2024/01/31 01:50:03;;;;;;;;;;;;;;;10.53;67.12;102905.88;7351611;19;20344;-65
2024/01/31 01:52:31;;;;;;;;;;;;;;;10.54;67.77;102916.31;7353208;19;19919;-66
2024/01/31 01:55:02;;;;;;;;;;;;;;;10.52;68.38;102919.97;7340696;19;19923;-66
2024/01/31 01:57:32;;;;;;;;;;;;;;;10.49;66.38;102922.81;7345831;19;19919;-66
2024/01/31 02:00:00;;;;;;;;;;;;;;;10.42;66.38;102919.72;7340890;19;20313;-65
2024/01/31 02:02:27;;;;;;;;;;;;;;;10.39;66.10;102913.84;7349348;19;19936;-65
2024/01/31 02:04:54;;;;;;;;;;;;;;;10.36;65.96;102925.41;7349960;19;19922;-67
2024/01/31 02:07:26;;;;;;;;;;;;;;;10.38;65.93;102925.28;7343969;19;19922;-66
2024/01/31 02:09:54;;;;;;;;;;;;;;;10.39;66.88;102919.09;7338413;19;19918;-67
2024/01/31 02:12:21;;;;;;;;;;;;;;;10.36;66.07;102927.19;7342180;19;19971;-67
2024/01/31 02:14:48;;;;;;;;;;;;;;;10.35;65.80;102929.00;7350439;19;20577;-68
2024/01/31 02:17:15;;;;;;;;;;;;;;;10.36;66.12;102925.41;7349583;19;20018;-67
2024/01/31 02:19:41;;;;;;;;;;;;;;;10.40;66.54;102932.16;7342437;19;19962;-67
2024/01/31 02:22:18;;;;;;;;;;;;;;;10.41;67.04;102930.38;7335132;19;20341;-66
2024/01/31 02:24:45;;;;;;;;;;;;;;;10.42;67.39;102927.63;7344830;19;19937;-66
2024/01/31 02:27:13;;;;;;;;;;;;;;;10.47;67.95;102928.16;7348725;19;19923;-66
2024/01/31 02:29:39;;;;;;;;;;;;;;;10.50;69.17;102933.25;7337820;19;20030;-66
2024/01/31 02:32:06;;;;;;;;;;;;;;;10.50;68.71;102929.78;7356333;19;19918;-67
2024/01/31 02:34:34;;;;;;;;;;;;;;;10.53;69.72;102926.94;7351541;19;20312;-66
2024/01/31 02:37:01;;;;;;;;;;;;;;;10.50;70.06;102928.00;7350928;19;19926;-65
2024/01/31 02:39:30;;;;;;;;;;;;;;;10.51;71.02;102928.84;7341796;19;19930;-67
2024/01/31 02:41:57;;;;;;;;;;;;;;;10.53;72.33;102933.03;7350032;19;21029;-67
2024/01/31 02:44:28;;;;;;;;;;;;;;;10.52;67.86;102941.88;7347362;19;21047;-66
2024/01/31 02:46:55;;;;;;;;;;;;;;;10.47;66.40;102946.59;7356175;19;19994;-67
2024/01/31 02:49:22;;;;;;;;;;;;;;;10.47;66.27;102933.44;7345746;19;19919;-66
2024/01/31 02:51:49;;;;;;;;;;;;;;;10.48;66.71;102929.88;7352160;19;19945;-67
2024/01/31 02:54:16;;;;;;;;;;;;;;;10.46;66.90;102930.94;7352222;19;20453;-66
2024/01/31 02:56:43;;;;;;;;;;;;;;;10.41;66.94;102931.22;7348097;19;19919;-66
2024/01/31 02:59:10;;;;;;;;;;;;;;;10.42;67.38;102925.00;7350189;19;20639;-66
2024/01/31 03:01:43;;;;;;;;;;;;;;;10.45;66.29;102923.97;7348695;19;21207;-67
2024/01/31 03:04:10;;;;;;;;;;;;;;;10.46;65.69;102913.34;7348143;19;21036;-67
2024/01/31 03:06:36;;;;;;;;;;;;;;;10.45;65.62;102902.91;7346340;19;19910;-65
2024/01/31 03:09:04;;;;;;;;;;;;;;;10.44;66.42;102909.13;7354919;19;19923;-67
2024/01/31 03:11:31;;;;;;;;;;;;;;;10.40;65.97;102905.00;7350565;19;19923;-66
2024/01/31 03:13:58;;;;;;;;;;;;;;;10.37;66.70;102886.75;7348438;19;20199;-66
2024/01/31 03:16:25;;;;;;;;;;;;;;;10.36;67.12;102885.94;7349397;19;19923;-67
2024/01/31 03:18:53;;;;;;;;;;;;;;;10.32;66.06;102878.31;7341571;19;20943;-66
2024/01/31 03:21:20;;;;;;;;;;;;;;;10.25;66.61;102886.66;7338204;19;20030;-66
2024/01/31 03:23:47;;;;;;;;;;;;;;;10.32;67.42;102894.13;7342162;19;19943;-67
2024/01/31 03:26:14;;;;;;;;;;;;;;;10.29;67.29;102885.50;7344016;19;19919;-67
2024/01/31 03:28:41;;;;;;;;;;;;;;;10.29;67.80;102888.13;7347599;19;19922;-66
2024/01/31 03:31:08;;;;;;;;;;;;;;;10.28;66.46;102889.06;7344397;19;19933;-66
2024/01/31 03:33:35;;;;;;;;;;;;;;;10.25;66.38;102885.81;7346312;19;19931;-68
2024/01/31 03:36:02;;;;;;;;;;;;;;;10.20;66.04;102872.09;7333568;19;21714;-66
2024/01/31 03:38:31;;;;;;;;;;;;;;;10.21;66.89;102871.13;7343050;19;20025;-67
2024/01/31 03:40:58;;;;;;;;;;;;;;;10.20;67.48;102870.31;7346015;19;19978;-66
2024/01/31 03:43:25;;;;;;;;;;;;;;;10.23;68.39;102874.53;7346489;19;20249;-67
2024/01/31 03:45:52;;;;;;;;;;;;;;;10.25;68.86;102870.84;7347396;19;21582;-66
2024/01/31 03:48:19;;;;;;;;;;;;;;;10.24;67.35;102868.31;7346659;19;19914;-67
2024/01/31 03:50:46;;;;;;;;;;;;;;;10.21;67.38;102864.09;7343080;19;20785;-66
2024/01/31 03:53:13;;;;;;;;;;;;;;;10.20;66.84;102859.78;7348506;19;20600;-66
2024/01/31 03:55:40;;;;;;;;;;;;;;;10.22;67.45;102860.53;7342858;19;19923;-65
2024/01/31 03:58:07;;;;;;;;;;;;;;;10.22;68.45;102864.94;7343931;19;19922;-66
2024/01/31 04:00:36;;;;;;;;;;;;;;;10.26;70.26;102856.75;7345118;19;19945;-66
2024/01/31 04:03:03;;;;;;;;;;;;;;;10.22;69.25;102844.72;7347393;19;19963;-67
2024/01/31 04:05:32;;;;;;;;;;;;;;;10.23;68.15;102841.16;7344217;19;19957;-68
2024/01/31 04:08:07;;;;;;;;;;;;;;;10.25;68.43;102831.41;7342121;19;19918;-65
2024/01/31 04:10:34;;;;;;;;;;;;;;;10.26;67.87;102824.31;7349184;19;19919;-66
2024/01/31 04:13:01;;;;;;;;;;;;;;;10.26;67.86;102827.78;7346940;19;19952;-66
2024/01/31 04:15:28;;;;;;;;;;;;;;;10.24;66.89;102831.50;7339498;19;19930;-66
2024/01/31 04:17:56;;;;;;;;;;;;;;;10.23;66.21;102833.28;7348291;19;19927;-67
2024/01/31 04:20:23;;;;;;;;;;;;;;;10.22;66.21;102833.38;7352354;19;20900;-67
2024/01/31 04:22:50;;;;;;;;;;;;;;;10.19;66.27;102839.69;7342258;19;19918;-66
2024/01/31 04:25:17;;;;;;;;;;;;;;;10.17;66.36;102845.97;7340193;19;21687;-66
2024/01/31 04:27:44;;;;;;;;;;;;;;;10.15;66.89;102850.47;7338462;19;19919;-66
2024/01/31 04:30:11;;;;;;;;;;;;;;;10.16;66.84;102841.66;7345828;19;20027;-65
2024/01/31 04:32:38;;;;;;;;;;;;;;;10.19;68.38;102838.84;7336364;19;21881;-65
2024/01/31 04:35:09;;;;;;;;;;;;;;;10.20;68.39;102846.66;7338866;19;19962;-65
2024/01/31 04:37:36;;;;;;;;;;;;;;;10.23;68.33;102853.47;7351176;19;20045;-67
2024/01/31 04:40:04;;;;;;;;;;;;;;;10.25;69.39;102849.81;7351787;19;19919;-66
2024/01/31 04:42:32;;;;;;;;;;;;;;;10.23;68.60;102856.09;7338407;19;19910;-66
2024/01/31 04:44:59;;;;;;;;;;;;;;;10.27;68.48;102847.91;7346895;19;19931;-67
2024/01/31 04:47:26;;;;;;;;;;;;;;;10.28;68.54;102851.38;7341258;19;19923;-66
2024/01/31 04:49:55;;;;;;;;;;;;;;;10.28;68.31;102849.59;7337472;19;19943;-67
2024/01/31 04:52:22;;;;;;;;;;;;;;;10.26;66.82;102850.63;7344291;19;19923;-66
2024/01/31 04:54:52;;;;;;;;;;;;;;;10.24;67.33;102857.78;7342655;19;19926;-66
2024/01/31 04:57:19;;;;;;;;;;;;;;;10.25;66.79;102843.72;7345099;19;19986;-67
2024/01/31 04:59:46;;;;;;;;;;;;;;;10.24;68.28;102855.16;7341669;19;19923;-66
2024/01/31 05:02:15;;;;;;;;;;;;;;;10.17;66.16;102848.59;7354453;19;19933;-66
2024/01/31 05:04:42;;;;;;;;;;;;;;;10.16;67.04;102850.38;7337367;19;20330;-66
2024/01/31 05:07:09;;;;;;;;;;;;;;;10.16;67.03;102850.38;7341180;19;20410;-66
2024/01/31 05:09:36;;;;;;;;;;;;;;;10.12;66.25;102845.41;7344454;19;19950;-66
2024/01/31 05:12:03;;;;;;;;;;;;;;;10.05;65.96;102844.97;7350499;19;19914;-68
2024/01/31 05:14:30;;;;;;;;;;;;;;;10.05;65.93;102858.13;7337036;19;19919;-66
2024/01/31 05:16:58;;;;;;;;;;;;;;;10.04;66.38;102856.44;7345882;19;21370;-66
2024/01/31 05:19:25;;;;;;;;;;;;;;;10.03;66.19;102854.75;7338651;19;20267;-66
2024/01/31 05:21:56;;;;;;;;;;;;;;;10.07;68.51;102850.97;7343757;19;21044;-66
2024/01/31 05:24:27;;;;;;;;;;;;;;;10.13;68.03;102849.72;7343282;19;19966;-66
2024/01/31 05:26:56;;;;;;;;;;;;;;;10.18;67.40;102853.78;7352561;19;19929;-66
2024/01/31 05:29:22;;;;;;;;;;;;;;;10.19;68.02;102859.88;7351931;19;19918;-67
2024/01/31 05:31:49;;;;;;;;;;;;;;;10.22;69.38;102865.78;7350470;19;19957;-66
2024/01/31 05:34:22;;;;;;;;;;;;;;;10.18;67.70;102863.44;7347029;19;19941;-66
2024/01/31 05:36:51;;;;;;;;;;;;;;;10.19;67.23;102867.78;7343930;19;19930;-67
2024/01/31 05:39:18;;;;;;;;;;;;;;;10.19;67.06;102867.78;7343747;19;19929;-67
2024/01/31 05:41:45;;;;;;;;;;;;;;;10.10;66.40;102874.44;7338074;19;19933;-67
2024/01/31 05:44:12;;;;;;;;;;;;;;;10.07;66.11;102872.00;7336486;19;19927;-67
2024/01/31 05:46:40;;;;;;;;;;;;;;;10.06;66.77;102865.03;7339674;19;19923;-67
2024/01/31 05:49:08;;;;;;;;;;;;;;;10.07;66.42;102873.78;7347900;19;19975;-66
2024/01/31 05:51:34;;;;;;;;;;;;;;;10.00;65.43;102881.25;7352551;19;19934;-67
2024/01/31 05:54:01;;;;;;;;;;;;;;;10.03;66.23;102874.94;7340763;19;19919;-66
2024/01/31 05:56:28;;;;;;;;;;;;;;;10.03;66.02;102870.50;7344671;19;20259;-67
2024/01/31 05:58:55;;;;;;;;;;;;;;;10.10;67.47;102863.94;7344972;19;20236;-66
2024/01/31 06:01:22;;;;;;;;;;;;;;;10.12;66.74;102866.44;7353067;19;19925;-67
2024/01/31 06:03:49;;;;;;;;;;;;;;;10.06;65.59;102851.06;7347783;19;19919;-66
2024/01/31 06:06:16;;;;;;;;;;;;;;;10.02;66.41;102854.81;7351617;19;20019;-68
2024/01/31 06:08:43;;;;;;;;;;;;;;;10.04;66.92;102852.97;7351479;19;19919;-66
2024/01/31 06:11:09;;;;;;;;;;;;;;;10.03;66.82;102849.47;7344209;19;19923;-67
2024/01/31 06:13:37;;;;;;;;;;;;;;;9.99;66.27;102836.63;7353382;19;19968;-66
2024/01/31 06:16:04;;;;;;;;;;;;;;;9.97;65.65;102841.97;7356315;19;20340;-68
2024/01/31 06:18:34;;;;;;;;;;;;;;;9.99;66.21;102841.88;7356628;19;19929;-66
2024/01/31 06:21:02;;;;;;;;;;;;;;;10.04;67.80;102831.91;7358004;19;19917;-67
2024/01/31 06:23:30;;;;;;;;;;;;;;;10.03;66.70;102830.22;7358631;19;19923;-67
2024/01/31 06:25:59;;;;;;;;;;;;;;;10.03;66.31;102830.22;7356880;19;20683;-65
2024/01/31 06:28:26;;;;;;;;;;;;;;;10.05;66.40;102821.31;7355851;19;20494;-66
2024/01/31 06:30:59;;;;;;;;;;;;;;;10.06;66.26;102815.06;7343263;19;19977;-67
2024/01/31 06:33:31;;;;;;;;;;;;;;;10.04;65.17;102809.09;7346599;19;19915;-66
2024/01/31 06:35:58;;;;;;;;;;;;;;;10.04;66.52;102810.88;7344722;19;19923;-66
2024/01/31 06:38:25;;;;;;;;;;;;;;;10.00;66.22;102822.53;7355193;19;19931;-66
2024/01/31 06:40:58;;;;;;;;;;;;;;;9.97;66.62;102809.56;7343724;19;20053;-66
2024/01/31 06:43:25;;;;;;;;;;;;;;;9.92;65.37;102819.56;7351112;19;19945;-65
2024/01/31 06:45:53;;;;;;;;;;;;;;;9.89;66.76;102802.19;7341231;19;20909;-66
2024/01/31 06:48:20;;;;;;;;;;;;;;;9.91;67.16;102804.72;7356585;19;20039;-67
2024/01/31 06:50:47;;;;;;;;;;;;;;;9.96;67.12;102805.25;7351960;19;19919;-68
2024/01/31 06:53:14;;;;;;;;;;;;;;;9.95;65.65;102799.19;7349285;19;19918;-67
2024/01/31 06:55:41;;;;;;;;;;;;;;;9.92;65.67;102795.88;7338765;19;19923;-67
2024/01/31 06:58:08;;;;;;;;;;;;;;;9.87;65.59;102804.91;7344495;19;20479;-66
2024/01/31 07:00:35;;;;;;;;;;;;;;;9.84;65.25;102807.75;7342284;19;19944;-65
2024/01/31 07:03:03;;;;;;;;;;;;;;;9.85;65.72;102796.28;7342635;19;20183;-67
2024/01/31 07:05:31;;;;;;;;;;;;;;;9.87;66.55;102804.06;7349604;19;20894;-67
2024/01/31 07:07:58;;;;;;;;;;;;;;;9.93;68.29;102797.56;7343395;19;19978;-66
2024/01/31 07:10:24;;;;;;;;;;;;;;;9.96;68.05;102797.38;7335994;19;20026;-66
2024/01/31 07:12:53;;;;;;;;;;;;;;;9.99;68.17;102794.56;7339756;19;20501;-67
2024/01/31 07:15:20;;;;;;;;;;;;;;;10.05;67.90;102796.78;7336831;19;20339;-66
2024/01/31 07:17:47;;;;;;;;;;;;;;;10.04;66.69;102795.94;7346494;19;19918;-66
2024/01/31 07:20:15;;;;;;;;;;;;;;;10.03;66.25;102789.00;7342846;19;19985;-66
2024/01/31 07:22:43;;;;;;;;;;;;;;;9.99;66.85;102786.66;7353331;19;19933;-66
2024/01/31 07:25:13;;;;;;;;;;;;;;;9.98;66.63;102779.72;7345388;19;20577;-66
2024/01/31 07:27:41;;;;;;;;;;;;;;;9.97;66.25;102775.41;7354578;19;20762;-66
2024/01/31 07:30:11;;;;;;;;;;;;;;;9.94;66.00;102767.72;7349583;19;19927;-66
2024/01/31 07:32:39;;;;;;;;;;;;;;;9.99;68.23;102773.53;7350050;19;19927;-68
2024/01/31 07:35:10;;;;;;;;;;;;;;;10.00;67.04;102768.16;7342157;19;19926;-69
2024/01/31 07:37:37;;;;;;;;;;;;;;;10.00;66.76;102767.31;7316714;19;19915;-68
2024/01/31 07:40:10;;;;;;;;;;;;;;;10.01;67.17;102771.63;7337886;19;19995;-67
2024/01/31 07:42:38;;;;;;;;;;;;;;;10.06;67.43;102770.38;7347118;19;19967;-66
2024/01/31 07:45:05;;;;;;;;;;;;;;;10.06;66.95;102764.25;7343146;19;19963;-67
2024/01/31 07:47:32;;;;;;;;;;;;;;;10.10;67.67;102763.97;7344725;19;19919;-67
2024/01/31 07:49:59;;;;;;;;;;;;;;;10.16;68.59;102758.31;7346326;19;19927;-67
2024/01/31 07:52:26;;;;;;;;;;;;;;;10.12;66.03;102761.22;7338332;19;20561;-66
2024/01/31 07:54:53;;;;;;;;;;;;;;;10.12;68.41;102756.81;7341450;19;20268;-66
2024/01/31 07:57:20;;;;;;;;;;;;;;;10.13;67.91;102755.88;7346152;19;19918;-67
2024/01/31 07:59:46;;;;;;;;;;;;;;;10.10;65.92;102748.22;7349699;19;19926;-67
2024/01/31 08:02:14;;;;;;;;;;;;;;;10.12;66.24;102748.09;7354177;19;19925;-66
2024/01/31 08:04:41;;;;;;;;;;;;;;;10.13;68.26;102750.63;7348982;19;19919;-67
2024/01/31 08:07:11;;;;;;;;;;;;;;;10.14;67.86;102749.69;7338494;19;19922;-66
2024/01/31 08:09:39;;;;;;;;;;;;;;;10.31;74.91;102753.00;7336044;19;19929;-68
2024/01/31 08:12:06;;;;;;;;;;;;;;;10.42;77.57;102753.94;7342933;19;19937;-68
2024/01/31 08:14:33;;;;;;;;;;;;;;;10.46;71.53;102749.34;7346639;19;19923;-66
2024/01/31 08:17:03;;;;;;;;;;;;;;;10.45;67.95;102729.22;7346889;19;19929;-66
2024/01/31 08:19:30;;;;;;;;;;;;;;;10.40;66.18;102724.28;7344912;19;19914;-67
2024/01/31 08:21:57;;;;;;;;;;;;;;;10.36;66.16;102743.84;7352540;19;19911;-65
2024/01/31 08:24:24;;;;;;;;;;;;;;;10.37;67.58;102747.31;7353766;19;19915;-66
2024/01/31 08:26:51;;;;;;;;;;;;;;;10.27;66.70;102745.31;7352058;19;19932;-67
2024/01/31 08:29:18;;;;;;;;;;;;;;;10.24;66.77;102761.31;7351601;19;19914;-66
2024/01/31 08:31:52;;;;;;;;;;;;;;;10.21;67.41;102772.00;7350599;19;19918;-66
2024/01/31 08:34:29;;;;;;;;;;;;;;;10.26;68.61;102771.72;7352794;19;20240;-66
2024/01/31 08:36:58;;;;;;;;;;;;;;;10.26;67.69;102779.59;7338556;19;21701;-65
2024/01/31 08:39:25;;;;;;;;;;;;;;;10.26;68.70;102780.44;7349236;19;21007;-67
2024/01/31 08:41:52;;;;;;;;;;;;;;;10.29;69.13;102777.63;7346116;19;19922;-67
2024/01/31 08:44:20;;;;;;;;;;;;;;;10.34;69.21;102787.84;7344180;19;20039;-66
2024/01/31 08:46:48;;;;;;;;;;;;;;;10.36;68.48;102800.91;7339961;19;20214;-66
2024/01/31 08:49:35;;;;;;;;;;;;;;;10.42;69.98;102792.56;7346055;19;19930;-68
2024/01/31 08:52:02;;;;;;;;;;;;;;;10.45;69.61;102787.13;7351299;19;20620;-66
2024/01/31 08:54:36;;;;;;;;;;;;;;;10.48;68.36;102777.22;7347167;19;20888;-66
2024/01/31 08:57:04;;;;;;;;;;;;;;;10.47;68.07;102764.16;7339802;19;19923;-66
2024/01/31 08:59:31;;;;;;;;;;;;;;;10.40;67.88;102755.84;7345884;19;19929;-66
2024/01/31 09:01:58;;;;;;;;;;;;;;;10.43;68.85;102763.53;7339059;19;19923;-67
2024/01/31 09:04:25;;;;;;;;;;;;;;;10.43;67.57;102754.78;7341828;19;19926;-66
2024/01/31 09:06:53;;;;;;;;;;;;;;;10.35;67.61;102746.59;7344667;19;19935;-67
2024/01/31 09:09:20;;;;;;;;;;;;;;;10.38;67.84;102744.59;7339549;19;19926;-67
2024/01/31 09:11:47;;;;;;;;;;;;;;;10.38;67.79;102735.84;7343614;19;19958;-66
2024/01/31 09:14:30;;;;;;;;;;;;;;;10.42;68.01;102738.16;7337560;19;21865;-67
2024/01/31 09:17:03;;;;;;;;;;;;;;;10.49;69.32;102720.16;7342960;19;19934;-67
2024/01/31 09:19:30;;;;;;;;;;;;;;;10.52;68.07;102722.56;7346798;19;20460;-66
2024/01/31 09:21:57;;;;;;;;;;;;;;;10.52;68.30;102712.03;7347199;19;19959;-68
2024/01/31 09:24:26;;;;;;;;;;;;;;;10.56;69.00;102716.19;7357909;19;19927;-68
2024/01/31 09:26:56;;;;;;;;;;;;;;;10.56;67.56;102708.28;7356067;19;19926;-68
2024/01/31 09:29:25;;;;;;;;;;;;;;;10.51;67.20;102703.34;7359486;19;19923;-66
2024/01/31 09:31:52;;;;;;;;;;;;;;;10.58;67.47;102695.84;7358790;19;19982;-66
2024/01/31 09:34:18;;;;;;;;;;;;;;;10.59;67.91;102679.94;7355669;19;19926;-66
2024/01/31 09:36:50;;;;;;;;;;;;;;;10.55;67.16;102677.66;7345043;19;21230;-67
2024/01/31 09:39:17;;;;;;;;;;;;;;;10.56;67.93;102660.91;7354941;19;19918;-67
2024/01/31 09:41:44;;;;;;;;;;;;;;;10.53;67.98;102655.84;7345886;19;19926;-66
2024/01/31 09:44:11;;;;;;;;;;;;;;;10.56;68.38;102664.38;7343799;19;20452;-67
2024/01/31 09:46:55;;;;;;;;;;;;;;;10.58;67.84;102662.47;7349106;19;20661;-66
2024/01/31 09:49:24;;;;;;;;;;;;;;;10.55;67.40;102662.69;7344672;19;19914;-66
2024/01/31 09:52:01;;;;;;;;;;;;;;;10.49;68.02;102671.00;7338497;19;20009;-66
2024/01/31 09:54:37;;;;;;;;;;;;;;;10.55;68.43;102672.38;7345228;19;19930;-67
2024/01/31 09:57:07;;;;;;;;;;;;;;;10.63;68.33;102663.00;7352696;19;20403;-67
2024/01/31 09:59:34;;;;;;;;;;;;;;;10.62;66.71;102669.19;7345573;19;20019;-67
2024/01/31 10:02:02;;;;;;;;;;;;;;;10.61;67.34;102669.31;7342512;19;20021;-67
2024/01/31 10:04:30;;;;;;;;;;;;;;;10.69;69.04;102672.25;7343988;19;19923;-67
2024/01/31 10:06:59;;;;;;;;;;;;;;;10.71;68.56;102663.31;7353458;19;19919;-66
2024/01/31 10:09:26;;;;;;;;;;;;;;;10.78;69.13;102657.59;7348440;19;19986;-67
2024/01/31 10:11:53;;;;;;;;;;;;;;;10.86;67.63;102652.63;7340145;19;20276;-67
2024/01/31 10:14:28;;;;;;;;;;;;;;;10.89;67.33;102647.97;7350488;19;19927;-68
2024/01/31 10:17:02;;;;;;;;;;;;;;;10.95;68.74;102651.97;7352098;19;21686;-68
2024/01/31 10:19:31;;;;;;;;;;;;;;;10.95;67.46;102657.25;7349297;19;19918;-67
2024/01/31 10:21:59;;;;;;;;;;;;;;;10.94;67.40;102659.03;7350620;19;19919;-67
2024/01/31 10:24:27;;;;;;;;;;;;;;;10.93;66.75;102664.41;7352862;19;19926;-67
2024/01/31 10:27:10;;;;;;;;;;;;;;;10.93;65.62;102672.28;7342238;19;20616;-67
2024/01/31 10:29:39;;;;;;;;;;;;;;;10.87;65.79;102676.19;7343621;19;21058;-66
2024/01/31 10:32:06;;;;;;;;;;;;;;;10.89;65.65;102671.69;7348703;19;19918;-66
2024/01/31 10:34:37;;;;;;;;;;;;;;;10.84;66.23;102673.78;7346394;19;19919;-66
2024/01/31 10:37:26;;;;;;;;;;;;;;;10.83;65.43;102684.44;7344826;19;19946;-66
2024/01/31 10:40:13;;;;;;;;;;;;;;;10.84;66.69;102691.38;7345251;19;20466;-66
2024/01/31 10:42:43;;;;;;;;;;;;;;;10.88;66.57;102695.47;7358498;19;19934;-67
2024/01/31 10:45:10;;;;;;;;;;;;;;;10.88;67.24;102704.22;7347149;19;19915;-67
2024/01/31 10:47:37;;;;;;;;;;;;;;;10.93;66.74;102699.47;7350712;19;19966;-66
2024/01/31 10:50:05;;;;;;;;;;;;;;;10.90;66.57;102693.59;7338706;19;20836;-65
2024/01/31 10:52:34;;;;;;;;;;;;;;;10.92;67.11;102696.97;7344623;19;20478;-67
2024/01/31 10:55:03;;;;;;;;;;;;;;;10.91;65.69;102695.28;7340414;19;20505;-65
2024/01/31 10:57:37;;;;;;;;;;;;;;;10.77;65.26;102692.78;7346937;19;19926;-67
2024/01/31 11:00:32;;;;;;;;;;;;;;;10.75;65.86;102699.94;7350417;19;19923;-67
2024/01/31 11:03:00;;;;;;;;;;;;;;;10.77;66.25;102695.41;7341834;19;19984;-66
2024/01/31 11:05:31;;;;;;;;;;;;;;;10.84;67.96;102691.38;7348524;19;21734;-67
2024/01/31 11:08:00;;;;;;;;;;;;;;;10.93;67.99;102693.38;7346597;19;20442;-66
2024/01/31 11:10:28;;;;;;;;;;;;;;;10.94;65.65;102682.72;7348994;19;20365;-67
2024/01/31 11:12:57;;;;;;;;;;;;;;;10.89;65.22;102676.94;7345114;19;19914;-66
2024/01/31 11:15:32;;;;;;;;;;;;;;;10.88;65.17;102664.72;7350361;19;19949;-66
2024/01/31 11:18:11;;;;;;;;;;;;;;;10.89;65.48;102663.78;7340724;19;19934;-67
2024/01/31 11:20:40;;;;;;;;;;;;;;;10.94;67.14;102655.53;7342634;19;19927;-67
2024/01/31 11:23:08;;;;;;;;;;;;;;;10.93;65.54;102648.59;7349131;19;19923;-67
2024/01/31 11:25:36;;;;;;;;;;;;;;;10.91;65.98;102653.16;7345731;19;19935;-66
2024/01/31 11:28:03;;;;;;;;;;;;;;;10.93;67.49;102640.69;7347847;19;19915;-68
2024/01/31 11:30:31;;;;;;;;;;;;;;;10.90;66.48;102647.03;7342403;19;20272;-67
2024/01/31 11:33:02;;;;;;;;;;;;;;;10.92;66.67;102644.31;7327783;19;19926;-67
2024/01/31 11:35:29;;;;;;;;;;;;;;;10.96;66.14;102658.94;7342191;19;19951;-66
2024/01/31 11:37:57;;;;;;;;;;;;;;;10.96;66.01;102657.13;7344847;19;19919;-67
2024/01/31 11:40:24;;;;;;;;;;;;;;;10.98;66.25;102659.63;7344178;19;19929;-67
2024/01/31 11:42:52;;;;;;;;;;;;;;;11.01;65.68;102641.00;7335053;19;19931;-66
2024/01/31 11:45:22;;;;;;;;;;;;;;;11.02;65.79;102654.03;7344102;19;19922;-68
2024/01/31 11:47:50;;;;;;;;;;;;;;;11.00;64.99;102634.88;7343510;19;19931;-67
2024/01/31 11:50:18;;;;;;;;;;;;;;;10.97;64.91;102637.72;7343720;19;19919;-67
2024/01/31 11:52:45;;;;;;;;;;;;;;;10.96;64.97;102638.69;7350883;19;19929;-66
2024/01/31 11:55:12;;;;;;;;;;;;;;;10.92;64.86;102639.84;7337610;19;19922;-67
2024/01/31 11:57:40;;;;;;;;;;;;;;;10.93;65.93;102630.16;7345958;19;19959;-68
2024/01/31 12:00:09;;;;;;;;;;;;;;;10.97;65.49;102611.38;7339790;19;19929;-68
2024/01/31 12:02:37;;;;;;;;;;;;;;;11.02;66.13;102604.00;7347682;19;19919;-67
2024/01/31 12:05:05;;;;;;;;;;;;;;;11.07;64.82;102606.31;7337507;19;19930;-68
2024/01/31 12:07:44;;;;;;;;;;;;;;;11.10;64.72;102591.13;7341045;19;19929;-66
2024/01/31 12:10:17;;;;;;;;;;;;;;;11.14;65.15;102575.91;7346362;19;19934;-65
2024/01/31 12:12:44;;;;;;;;;;;;;;;11.15;63.84;102575.81;7345295;19;19953;-66
2024/01/31 12:15:12;;;;;;;;;;;;;;;11.24;65.29;102563.75;7345010;19;20618;-66
2024/01/31 12:17:43;;;;;;;;;;;;;;;11.29;64.66;102547.59;7344172;19;19998;-65
2024/01/31 12:20:22;;;;;;;;;;;;;;;11.32;63.34;102532.41;7348411;19;19922;-68
2024/01/31 12:22:51;;;;;;;;;;;;;;;11.39;63.76;102532.78;7342156;19;19946;-67
2024/01/31 12:25:18;;;;;;;;;;;;;;;11.41;63.81;102525.59;7335653;19;19927;-67
2024/01/31 12:27:45;;;;;;;;;;;;;;;11.38;63.17;102516.09;7345713;19;21837;-67
2024/01/31 12:30:12;;;;;;;;;;;;;;;11.39;63.87;102509.88;7338648;19;20502;-67
2024/01/31 12:32:39;;;;;;;;;;;;;;;11.46;63.68;102502.38;7331879;19;19933;-68
2024/01/31 12:35:06;;;;;;;;;;;;;;;11.47;63.15;102504.91;7333249;19;19929;-66
2024/01/31 12:37:34;;;;;;;;;;;;;;;11.47;63.87;102498.78;7338940;19;19918;-67
2024/01/31 12:40:01;;;;;;;;;;;;;;;11.43;63.13;102497.31;7333105;19;20762;-67
2024/01/31 12:42:28;;;;;;;;;;;;;;;11.45;63.40;102488.34;7341879;19;19921;-67
2024/01/31 12:44:56;;;;;;;;;;;;;;;11.50;64.44;102488.84;7332118;19;19919;-66